createdAt,value
2023-10-06T00:00:33.464Z,15.90
2023-10-06T00:03:00.523Z,17.20
2023-10-06T00:05:28.521Z,13.00
2023-10-06T00:07:55.065Z,12.23
2023-10-06T00:10:24.010Z,18.00
2023-10-06T00:12:56.736Z,19.33
2023-10-06T00:15:27.934Z,14.23
2023-10-06T00:17:57.427Z,12.70
2023-10-06T00:20:32.697Z,15.53
2023-10-06T00:23:07.950Z,17.80
2023-10-06T00:25:37.133Z,12.97
2023-10-06T00:28:15.151Z,13.77
2023-10-06T00:30:41.845Z,11.73
2023-10-06T00:33:08.841Z,13.57
2023-10-06T00:35:36.678Z,18.00
2023-10-06T00:38:17.885Z,12.80
2023-10-06T00:40:57.821Z,12.90
2023-10-06T00:43:36.518Z,11.90
2023-10-06T00:46:10.298Z,16.60
2023-10-06T00:48:44.311Z,14.07
2023-10-06T00:51:14.023Z,17.80
2023-10-06T00:53:41.563Z,15.33
2023-10-06T00:56:17.979Z,14.63
2023-10-06T00:58:45.528Z,11.53
2023-10-06T01:01:18.619Z,14.30
2023-10-06T01:03:49.946Z,17.73
2023-10-06T01:06:24.287Z,16.50
2023-10-06T01:09:07.020Z,17.70
2023-10-06T01:11:44.524Z,13.23
2023-10-06T01:14:12.083Z,14.80
2023-10-06T01:16:39.283Z,17.97
2023-10-06T01:19:18.002Z,15.13
2023-10-06T01:21:49.140Z,10.73
2023-10-06T01:24:27.098Z,11.20
2023-10-06T01:27:01.707Z,19.20
2023-10-06T01:29:32.084Z,14.87
2023-10-06T01:31:59.790Z,12.83
2023-10-06T01:34:26.284Z,15.83
2023-10-06T01:36:55.700Z,14.97
2023-10-06T01:39:26.866Z,10.87
2023-10-06T01:41:53.365Z,14.47
2023-10-06T01:44:19.902Z,13.67
2023-10-06T01:46:56.034Z,15.53
2023-10-06T01:49:23.705Z,15.20
2023-10-06T01:52:02.937Z,12.13
2023-10-06T01:54:38.066Z,11.10
2023-10-06T01:57:08.024Z,11.40
2023-10-06T01:59:35.040Z,14.87
2023-10-06T02:02:02.952Z,14.70
2023-10-06T02:04:39.810Z,12.70
2023-10-06T02:07:10.544Z,14.00
2023-10-06T02:09:38.408Z,13.70
2023-10-06T02:12:05.689Z,15.20
2023-10-06T02:14:32.357Z,15.20
2023-10-06T02:17:05.985Z,13.50
2023-10-06T02:19:34.149Z,12.30
2023-10-06T02:22:01.478Z,17.60
2023-10-06T02:24:28.005Z,18.97
2023-10-06T02:27:02.296Z,11.30
2023-10-06T02:29:30.079Z,14.00
2023-10-06T02:32:02.446Z,14.37
2023-10-06T02:34:31.048Z,12.67
2023-10-06T02:36:58.025Z,11.00
2023-10-06T02:39:32.110Z,14.33
2023-10-06T02:41:59.213Z,15.50
2023-10-06T02:44:26.263Z,11.37
2023-10-06T02:46:53.910Z,12.27
2023-10-06T02:49:33.125Z,12.87
2023-10-06T02:52:14.145Z,10.07
2023-10-06T02:54:50.913Z,15.57
2023-10-06T02:57:21.315Z,14.27
2023-10-06T02:59:49.392Z,11.77
2023-10-06T03:02:20.141Z,14.40
2023-10-06T03:04:55.882Z,11.33
2023-10-06T03:07:23.474Z,11.43
2023-10-06T03:09:49.977Z,18.03
2023-10-06T03:12:19.335Z,19.67
2023-10-06T03:14:45.842Z,20.63
2023-10-06T03:17:14.367Z,12.93
2023-10-06T03:19:42.022Z,11.93
2023-10-06T03:22:11.327Z,13.33
2023-10-06T03:24:46.117Z,16.67
2023-10-06T03:27:15.388Z,13.80
2023-10-06T03:29:47.638Z,19.13
2023-10-06T03:32:29.098Z,10.23
2023-10-06T03:34:58.335Z,13.47
2023-10-06T03:37:53.448Z,13.50
2023-10-06T03:40:31.586Z,11.90
2023-10-06T03:43:05.897Z,14.43
2023-10-06T03:45:33.491Z,13.63
2023-10-06T03:48:15.266Z,12.63
2023-10-06T03:50:44.954Z,14.90
2023-10-06T03:53:14.224Z,11.50
2023-10-06T03:55:47.240Z,15.80
2023-10-06T03:58:17.449Z,13.37
2023-10-06T04:00:50.662Z,15.13
2023-10-06T04:03:19.196Z,13.60
2023-10-06T04:05:47.115Z,13.33
2023-10-06T04:08:17.513Z,14.47
2023-10-06T04:10:45.970Z,13.30
2023-10-06T04:13:12.959Z,11.40
2023-10-06T04:15:40.870Z,11.43
2023-10-06T04:18:11.076Z,14.63
2023-10-06T04:20:39.511Z,13.40
2023-10-06T04:23:06.268Z,17.73
2023-10-06T04:25:32.992Z,11.80
2023-10-06T04:27:59.493Z,12.20
2023-10-06T04:30:26.664Z,13.90
2023-10-06T04:32:54.476Z,11.63
2023-10-06T04:35:22.352Z,19.70
2023-10-06T04:37:49.604Z,12.00
2023-10-06T04:40:18.441Z,15.60
2023-10-06T04:42:46.212Z,14.37
2023-10-06T04:45:16.109Z,15.23
2023-10-06T04:47:43.244Z,15.03
2023-10-06T04:50:10.739Z,14.50
2023-10-06T04:52:37.881Z,11.83
2023-10-06T04:55:12.996Z,12.40
2023-10-06T04:57:39.809Z,12.30
2023-10-06T05:00:14.259Z,18.83
2023-10-06T05:02:44.941Z,12.77
2023-10-06T05:05:12.782Z,11.60
2023-10-06T05:07:40.087Z,12.67
2023-10-06T05:10:14.874Z,13.77
2023-10-06T05:12:43.834Z,15.03
2023-10-06T05:15:15.627Z,29.07
2023-10-06T05:17:42.502Z,43.40
2023-10-06T05:20:20.501Z,46.53
2023-10-06T05:22:50.060Z,35.67
2023-10-06T05:25:16.619Z,45.57
2023-10-06T05:27:45.598Z,59.50
2023-10-06T05:30:14.718Z,63.70
2023-10-06T05:32:43.645Z,49.73
2023-10-06T05:35:11.732Z,25.40
2023-10-06T05:37:38.301Z,20.87
2023-10-06T05:40:05.457Z,19.47
2023-10-06T05:42:34.264Z,16.97
2023-10-06T05:45:13.772Z,20.33
2023-10-06T05:47:41.755Z,21.70
2023-10-06T05:50:10.003Z,16.00
2023-10-06T05:52:40.476Z,18.80
2023-10-06T05:55:11.048Z,16.20
2023-10-06T05:57:40.402Z,16.67
2023-10-06T06:00:09.881Z,14.70
2023-10-06T06:02:38.555Z,14.67
2023-10-06T06:05:05.661Z,13.97
2023-10-06T06:07:35.488Z,18.03
2023-10-06T06:10:05.383Z,13.87
2023-10-06T06:12:31.914Z,14.70
2023-10-06T06:14:58.359Z,16.00
2023-10-06T06:17:25.019Z,17.50
2023-10-06T06:19:54.668Z,13.80
2023-10-06T06:22:23.183Z,14.40
2023-10-06T06:24:50.909Z,16.33
2023-10-06T06:27:17.440Z,16.57
2023-10-06T06:29:47.473Z,15.87
2023-10-06T06:32:15.273Z,17.67
2023-10-06T06:34:42.978Z,14.20
2023-10-06T06:37:14.291Z,22.27
2023-10-06T06:39:45.345Z,16.37
2023-10-06T06:42:13.175Z,16.80
2023-10-06T06:44:40.984Z,17.67
2023-10-06T06:47:07.624Z,18.00
2023-10-06T06:49:34.212Z,16.93
2023-10-06T06:52:00.710Z,17.73
2023-10-06T06:54:27.218Z,13.43
2023-10-06T06:56:54.591Z,15.20
2023-10-06T06:59:21.198Z,22.17
2023-10-06T07:01:49.108Z,16.90
2023-10-06T07:04:15.576Z,17.20
2023-10-06T07:06:42.022Z,16.10
2023-10-06T07:09:14.019Z,18.57
2023-10-06T07:11:43.517Z,15.67
2023-10-06T07:14:11.101Z,17.40
2023-10-06T07:16:37.997Z,20.03
2023-10-06T07:19:04.950Z,14.13
2023-10-06T07:21:31.629Z,17.43
2023-10-06T07:24:00.988Z,14.93
2023-10-06T07:26:27.710Z,17.20
2023-10-06T07:28:55.091Z,14.30
2023-10-06T07:31:21.815Z,18.07
2023-10-06T07:33:48.556Z,12.83
2023-10-06T07:36:18.928Z,15.43
2023-10-06T07:38:46.120Z,22.37
2023-10-06T07:41:26.366Z,21.80
2023-10-06T07:43:53.273Z,21.37
2023-10-06T07:46:20.463Z,29.17
2023-10-06T07:48:47.320Z,21.27
2023-10-06T07:51:14.527Z,18.27
2023-10-06T07:53:41.132Z,22.77
2023-10-06T07:56:07.846Z,13.70
2023-10-06T07:58:45.034Z,22.47
2023-10-06T08:01:14.085Z,19.07
2023-10-06T08:03:42.426Z,18.30
2023-10-06T08:06:11.936Z,19.10
2023-10-06T08:08:39.597Z,19.40
2023-10-06T08:11:07.421Z,15.97
2023-10-06T08:13:34.742Z,20.80
2023-10-06T08:16:02.282Z,13.30
2023-10-06T08:18:30.912Z,16.43
2023-10-06T08:21:00.406Z,16.60
2023-10-06T08:23:27.354Z,14.10
2023-10-06T08:26:00.695Z,17.37
2023-10-06T08:28:28.045Z,15.30
2023-10-06T08:30:54.819Z,15.40
2023-10-06T08:33:21.546Z,19.47
2023-10-06T08:35:56.330Z,18.20
2023-10-06T08:38:22.886Z,16.90
2023-10-06T08:40:53.812Z,16.73
2023-10-06T08:43:27.566Z,16.40
2023-10-06T08:45:56.725Z,16.67
2023-10-06T08:48:28.278Z,14.30
2023-10-06T08:50:56.841Z,16.80
2023-10-06T08:53:24.866Z,18.60
2023-10-06T08:55:51.498Z,20.70
2023-10-06T08:58:18.950Z,17.97
2023-10-06T09:00:45.671Z,15.77
2023-10-06T09:03:15.905Z,16.67
2023-10-06T09:05:43.621Z,17.87
2023-10-06T09:08:16.187Z,17.23
2023-10-06T09:10:51.269Z,18.70
2023-10-06T09:13:22.969Z,16.23
2023-10-06T09:16:03.879Z,20.90
2023-10-06T09:18:35.463Z,22.73
2023-10-06T09:21:21.225Z,21.90
2023-10-06T09:23:48.981Z,17.90
2023-10-06T09:26:27.818Z,17.80
2023-10-06T09:29:03.812Z,25.43
2023-10-06T09:31:36.464Z,16.20
2023-10-06T09:34:03.390Z,15.90
2023-10-06T09:36:43.474Z,18.13
2023-10-06T09:39:20.957Z,19.73
2023-10-06T09:41:49.970Z,22.03
2023-10-06T09:44:20.082Z,17.30
2023-10-06T09:46:49.114Z,13.87
2023-10-06T09:49:19.395Z,27.67
2023-10-06T09:51:47.150Z,16.00
2023-10-06T09:54:15.925Z,17.70
2023-10-06T09:56:42.856Z,17.30
2023-10-06T09:59:13.871Z,17.77
2023-10-06T10:01:46.757Z,14.80
2023-10-06T10:04:15.128Z,17.93
2023-10-06T10:06:46.422Z,17.03
2023-10-06T10:09:18.027Z,16.87
2023-10-06T10:12:09.378Z,16.40
2023-10-06T10:15:13.124Z,19.67
2023-10-06T10:18:26.143Z,16.93
2023-10-06T10:20:53.677Z,17.60
2023-10-06T10:23:21.459Z,18.60
2023-10-06T10:25:48.310Z,15.60
2023-10-06T10:28:16.498Z,16.27
2023-10-06T10:31:00.919Z,15.90
2023-10-06T10:33:32.031Z,17.53
2023-10-06T10:36:13.953Z,12.07
2023-10-06T10:38:41.769Z,19.30
2023-10-06T10:41:09.204Z,17.73
2023-10-06T10:43:39.725Z,21.63
2023-10-06T10:46:07.819Z,14.40
2023-10-06T10:48:38.288Z,17.23
2023-10-06T10:51:12.149Z,15.00
2023-10-06T10:53:43.197Z,15.03
2023-10-06T10:56:29.003Z,14.67
2023-10-06T10:58:56.497Z,22.23
2023-10-06T11:01:27.599Z,17.83
2023-10-06T11:04:26.104Z,20.73
2023-10-06T11:06:56.518Z,14.87
2023-10-06T11:09:30.850Z,15.63
2023-10-06T11:12:23.572Z,15.27
2023-10-06T11:14:51.393Z,13.50
2023-10-06T11:17:36.254Z,14.80
2023-10-06T11:20:14.639Z,16.67
2023-10-06T11:22:52.179Z,13.70
2023-10-06T11:25:19.725Z,15.03
2023-10-06T11:28:04.937Z,13.37
2023-10-06T11:30:37.757Z,13.33
2023-10-06T11:33:06.712Z,16.50
2023-10-06T11:35:38.214Z,11.50
2023-10-06T11:38:12.363Z,14.73
2023-10-06T11:40:41.599Z,15.30
2023-10-06T11:43:16.407Z,14.60
2023-10-06T11:45:44.317Z,13.77
2023-10-06T11:48:31.017Z,14.03
2023-10-06T11:51:02.796Z,14.40
2023-10-06T11:53:29.596Z,16.17
2023-10-06T11:56:08.162Z,15.10
2023-10-06T11:58:37.411Z,13.70
2023-10-06T12:01:05.998Z,11.53
2023-10-06T12:03:40.760Z,11.13
2023-10-06T12:06:13.112Z,21.43
2023-10-06T12:08:46.965Z,14.13
2023-10-06T12:11:14.360Z,19.53
2023-10-06T12:13:41.241Z,19.37
2023-10-06T12:16:15.035Z,26.83
2023-10-06T12:18:45.280Z,13.87
2023-10-06T12:21:15.680Z,16.90
2023-10-06T12:23:43.380Z,15.30
2023-10-06T12:26:10.181Z,16.20
2023-10-06T12:28:36.809Z,13.17
2023-10-06T12:31:03.934Z,19.43
2023-10-06T12:33:30.693Z,16.77
2023-10-06T12:35:57.342Z,12.40
2023-10-06T12:38:24.049Z,12.80
2023-10-06T12:40:50.677Z,13.10
2023-10-06T12:43:20.027Z,12.93
2023-10-06T12:45:47.275Z,15.03
2023-10-06T12:48:14.387Z,15.67
2023-10-06T12:50:44.609Z,22.40
2023-10-06T12:53:12.840Z,20.13
2023-10-06T12:55:43.210Z,23.60
2023-10-06T12:58:15.642Z,18.70
2023-10-06T13:00:42.671Z,16.70
2023-10-06T13:03:18.510Z,12.80
2023-10-06T13:05:49.040Z,15.10
2023-10-06T13:08:22.541Z,21.57
2023-10-06T13:10:49.715Z,13.47
2023-10-06T13:13:19.094Z,20.50
2023-10-06T13:15:46.649Z,18.17
2023-10-06T13:18:14.150Z,12.70
2023-10-06T13:20:41.785Z,22.93
2023-10-06T13:23:08.822Z,13.77
2023-10-06T13:25:38.455Z,14.60
2023-10-06T13:28:05.844Z,16.53
2023-10-06T13:30:34.180Z,13.37
2023-10-06T13:33:00.926Z,17.97
2023-10-06T13:35:28.232Z,13.50
2023-10-06T13:37:55.123Z,19.80
2023-10-06T13:40:22.133Z,17.80
2023-10-06T13:42:49.851Z,15.97
2023-10-06T13:45:19.416Z,15.10
2023-10-06T13:47:48.472Z,24.20
2023-10-06T13:50:15.593Z,16.30
2023-10-06T13:52:43.148Z,17.40
2023-10-06T13:55:13.971Z,17.10
2023-10-06T13:57:42.028Z,15.20
2023-10-06T14:00:20.822Z,19.93
2023-10-06T14:02:50.658Z,19.77
2023-10-06T14:05:17.811Z,19.20
2023-10-06T14:07:45.825Z,13.37
2023-10-06T14:10:17.452Z,15.93
2023-10-06T14:12:50.102Z,15.27
2023-10-06T14:15:31.566Z,18.57
2023-10-06T14:17:59.840Z,18.57
2023-10-06T14:20:31.126Z,17.73
2023-10-06T14:22:58.342Z,13.97
2023-10-06T14:25:27.956Z,13.47
2023-10-06T14:27:56.004Z,14.00
2023-10-06T14:30:29.290Z,13.73
2023-10-06T14:33:10.919Z,17.10
2023-10-06T14:35:54.451Z,18.73
2023-10-06T14:38:34.064Z,16.03
2023-10-06T14:41:20.965Z,13.80
2023-10-06T14:44:07.453Z,12.20
2023-10-06T14:46:35.261Z,17.20
2023-10-06T14:49:04.588Z,15.33
2023-10-06T14:51:31.708Z,20.47
2023-10-06T14:54:01.385Z,17.30
2023-10-06T14:56:28.323Z,15.80
2023-10-06T14:58:58.589Z,12.10
2023-10-06T15:01:26.863Z,23.10
2023-10-06T15:03:53.787Z,21.03
2023-10-06T15:06:21.605Z,17.73
2023-10-06T15:08:51.044Z,17.93
2023-10-06T15:11:18.376Z,12.50
2023-10-06T15:13:48.141Z,13.43
2023-10-06T15:16:17.278Z,18.53
2023-10-06T15:18:47.300Z,15.27
2023-10-06T15:24:05.490Z,12.60
2023-10-06T15:26:32.020Z,20.73
2023-10-06T15:28:58.610Z,18.37
2023-10-06T15:31:28.009Z,15.17
2023-10-06T15:33:54.516Z,15.20
2023-10-06T15:36:21.121Z,16.30
2023-10-06T15:38:47.719Z,15.13
2023-10-06T15:41:16.944Z,14.00
2023-10-06T15:43:48.128Z,15.13
2023-10-06T15:46:16.427Z,14.87
2023-10-06T15:48:43.401Z,14.43
2023-10-06T15:51:12.536Z,16.33
2023-10-06T15:53:43.972Z,14.03
2023-10-06T15:56:14.985Z,16.50
2023-10-06T15:58:42.619Z,19.00
2023-10-06T16:01:10.475Z,17.63
2023-10-06T16:03:39.832Z,20.50
2023-10-06T16:06:07.147Z,15.73
2023-10-06T16:08:33.771Z,18.73
2023-10-06T16:11:08.406Z,16.70
2023-10-06T16:13:45.247Z,16.13
2023-10-06T16:16:17.010Z,12.17
2023-10-06T16:18:46.565Z,16.73
2023-10-06T16:21:14.988Z,16.00
2023-10-06T16:23:43.250Z,15.40
2023-10-06T16:26:11.089Z,21.37
2023-10-06T16:28:40.142Z,17.07
2023-10-06T16:31:10.456Z,13.83
2023-10-06T16:33:37.810Z,20.40
2023-10-06T16:36:08.252Z,14.87
2023-10-06T16:38:34.892Z,18.70
2023-10-06T16:41:02.051Z,18.33
2023-10-06T16:43:35.846Z,13.77
2023-10-06T16:46:07.201Z,18.50
2023-10-06T16:48:38.973Z,13.97
2023-10-06T16:51:09.404Z,12.87
2023-10-06T16:53:37.226Z,13.47
2023-10-06T16:56:06.007Z,17.80
2023-10-06T16:58:32.795Z,16.50
2023-10-06T17:01:05.666Z,15.93
2023-10-06T17:03:33.320Z,15.07
2023-10-06T17:06:00.666Z,14.70
2023-10-06T17:08:27.317Z,13.90
2023-10-06T17:10:53.919Z,18.83
2023-10-06T17:13:23.535Z,17.50
2023-10-06T17:15:50.395Z,14.97
2023-10-06T17:18:17.203Z,18.10
2023-10-06T17:20:45.239Z,16.40
2023-10-06T17:23:12.720Z,16.67
2023-10-06T17:25:40.474Z,15.70
2023-10-06T17:28:08.638Z,16.53
2023-10-06T17:30:37.342Z,15.47
2023-10-06T17:33:08.186Z,20.43
2023-10-06T17:35:35.545Z,14.43
2023-10-06T17:38:02.359Z,18.43
2023-10-06T17:40:30.195Z,16.80
2023-10-06T17:42:56.696Z,20.93
2023-10-06T17:45:26.550Z,15.90
2023-10-06T17:47:56.265Z,16.57
2023-10-06T17:50:23.985Z,16.73
2023-10-06T17:52:50.654Z,16.43
2023-10-06T17:55:17.246Z,15.90
2023-10-06T17:57:43.790Z,12.40
2023-10-06T18:00:12.194Z,15.87
2023-10-06T18:02:39.876Z,17.43
2023-10-06T18:05:09.721Z,16.20
2023-10-06T18:07:37.067Z,13.20
2023-10-06T18:10:09.308Z,13.50
2023-10-06T18:12:37.953Z,19.60
2023-10-06T18:15:06.524Z,17.03
2023-10-06T18:17:33.472Z,15.83
2023-10-06T18:20:00.058Z,15.50
2023-10-06T18:22:28.288Z,13.97
2023-10-06T18:24:54.909Z,19.50
2023-10-06T18:27:22.201Z,16.00
2023-10-06T18:29:48.704Z,20.87
2023-10-06T18:32:15.598Z,13.93
2023-10-06T18:34:43.134Z,13.90
2023-10-06T18:37:09.756Z,13.97
2023-10-06T18:39:36.629Z,14.90
2023-10-06T18:42:03.205Z,19.20
2023-10-06T18:44:29.718Z,15.30
2023-10-06T18:46:56.370Z,16.93
2023-10-06T18:49:23.450Z,14.10
2023-10-06T18:51:50.058Z,16.10
2023-10-06T18:54:16.616Z,16.97
2023-10-06T18:56:43.260Z,14.43
2023-10-06T18:59:09.910Z,16.57
2023-10-06T19:01:36.732Z,13.60
2023-10-06T19:04:10.705Z,16.47
2023-10-06T19:06:41.459Z,13.60
2023-10-06T19:09:11.116Z,13.17
2023-10-06T19:11:37.979Z,20.97
2023-10-06T19:14:05.989Z,16.00
2023-10-06T19:16:33.272Z,13.67
2023-10-06T19:19:01.091Z,18.20
2023-10-06T19:21:28.167Z,17.80
2023-10-06T19:23:55.589Z,20.50
2023-10-06T19:26:23.472Z,20.27
2023-10-06T19:28:50.505Z,14.93
2023-10-06T19:31:17.518Z,17.93
2023-10-06T19:33:48.381Z,17.53
2023-10-06T19:36:15.290Z,16.57
2023-10-06T19:38:44.680Z,17.93
2023-10-06T19:41:12.229Z,16.40
2023-10-06T19:43:38.892Z,15.30
2023-10-06T19:46:10.826Z,17.03
2023-10-06T19:48:39.335Z,15.80
2023-10-06T19:51:07.767Z,13.30
2023-10-06T19:53:37.626Z,14.30
2023-10-06T19:56:04.809Z,14.73
2023-10-06T19:58:32.372Z,14.63
2023-10-06T20:00:59.705Z,13.30
2023-10-06T20:03:26.979Z,13.17
2023-10-06T20:05:57.628Z,14.27
2023-10-06T20:08:25.031Z,14.30
2023-10-06T20:10:53.884Z,12.03
2023-10-06T20:13:21.082Z,14.03
2023-10-06T20:15:47.670Z,15.73
2023-10-06T20:18:15.873Z,15.23
2023-10-06T20:20:43.507Z,15.00
2023-10-06T20:23:10.021Z,13.07
2023-10-06T20:25:36.521Z,12.80
2023-10-06T20:28:04.136Z,19.53
2023-10-06T20:30:31.596Z,20.03
2023-10-06T20:32:58.365Z,13.90
2023-10-06T20:35:28.796Z,12.00
2023-10-06T20:37:59.599Z,15.00
2023-10-06T20:40:26.626Z,13.00
2023-10-06T20:42:57.183Z,15.00
2023-10-06T20:45:27.784Z,17.27
2023-10-06T20:47:59.099Z,14.80
2023-10-06T20:50:26.583Z,14.50
2023-10-06T20:52:54.418Z,12.67
2023-10-06T20:55:22.104Z,14.17
2023-10-06T20:57:49.789Z,15.30
2023-10-06T21:00:22.463Z,17.20
2023-10-06T21:02:49.222Z,16.33
2023-10-06T21:05:20.490Z,16.43
2023-10-06T21:07:47.176Z,21.83
2023-10-06T21:10:14.577Z,13.20
2023-10-06T21:12:45.990Z,16.17
2023-10-06T21:15:15.175Z,18.93
2023-10-06T21:17:48.185Z,14.80
2023-10-06T21:20:16.412Z,12.00
2023-10-06T21:22:43.413Z,15.63
2023-10-06T21:25:13.753Z,15.63
2023-10-06T21:27:41.114Z,15.30
2023-10-06T21:30:09.006Z,16.30
2023-10-06T21:32:38.465Z,16.33
2023-10-06T21:35:08.476Z,14.63
2023-10-06T21:37:35.293Z,14.73
2023-10-06T21:40:02.638Z,14.23
2023-10-06T21:42:29.734Z,12.10
2023-10-06T21:44:56.611Z,18.30
2023-10-06T21:47:23.830Z,12.13
2023-10-06T21:49:50.412Z,11.20
2023-10-06T21:52:17.034Z,16.73
2023-10-06T21:54:43.856Z,18.30
2023-10-06T21:57:13.677Z,18.50
2023-10-06T21:59:42.216Z,15.23
2023-10-06T22:02:09.106Z,16.33
2023-10-06T22:04:35.909Z,18.63
2023-10-06T22:07:02.567Z,19.93
2023-10-06T22:09:29.822Z,16.70
2023-10-06T22:11:56.689Z,15.73
2023-10-06T22:14:23.299Z,11.67
2023-10-06T22:16:51.518Z,16.90
2023-10-06T22:19:18.154Z,19.20
2023-10-06T22:21:45.022Z,13.53
2023-10-06T22:24:15.073Z,15.43
2023-10-06T22:26:41.686Z,13.30
2023-10-06T22:29:08.203Z,14.60
2023-10-06T22:31:34.874Z,17.53
2023-10-06T22:34:01.452Z,13.40
2023-10-06T22:36:28.728Z,18.33
2023-10-06T22:38:55.603Z,14.03
2023-10-06T22:41:22.102Z,15.60
2023-10-06T22:43:48.791Z,16.70
2023-10-06T22:46:16.008Z,15.40
2023-10-06T22:48:44.602Z,16.67
2023-10-06T22:51:12.981Z,22.03
2023-10-06T22:53:42.393Z,24.20
2023-10-06T22:56:09.287Z,20.10
2023-10-06T22:58:37.467Z,13.23
2023-10-06T23:01:04.170Z,13.87
2023-10-06T23:03:31.598Z,13.00
2023-10-06T23:06:00.387Z,17.13
2023-10-06T23:08:28.801Z,14.13
2023-10-06T23:10:55.415Z,13.90
2023-10-06T23:13:22.489Z,13.17
2023-10-06T23:15:49.089Z,14.10
2023-10-06T23:18:18.165Z,16.43
2023-10-06T23:20:47.513Z,15.00
2023-10-06T23:23:14.320Z,16.10
2023-10-06T23:25:47.463Z,17.50
2023-10-06T23:28:14.585Z,17.70
2023-10-06T23:30:41.131Z,12.97
2023-10-06T23:33:08.092Z,13.23
2023-10-06T23:35:35.266Z,25.60
2023-10-06T23:38:07.385Z,13.00
2023-10-06T23:40:39.429Z,13.83
2023-10-06T23:43:09.829Z,13.17
2023-10-06T23:45:38.174Z,14.83
2023-10-06T23:48:11.215Z,14.17
2023-10-06T23:50:42.514Z,19.40
2023-10-06T23:53:10.388Z,14.03
2023-10-06T23:55:43.369Z,12.53
2023-10-06T23:58:17.706Z,16.70
